sensor_id;sensor_type;location;lat;lon;timestamp;P1;durP1;ratioP1;P2;durP2;ratioP2
11735;SDS011;5924;51.398;7.088;2023-04-01T00:01:38;6.20;;;1.60;;
11735;SDS011;5924;51.398;7.088;2023-04-01T00:04:03;3.87;;;1.80;;
11735;SDS011;5924;51.398;7.088;2023-04-01T00:06:29;10.33;;;2.13;;
11735;SDS011;5924;51.398;7.088;2023-04-01T00:08:55;2.30;;;1.50;;
11735;SDS011;5924;51.398;7.088;2023-04-01T00:11:21;2.87;;;1.70;;
11735;SDS011;5924;51.398;7.088;2023-04-01T00:13:47;1.43;;;1.20;;
11735;SDS011;5924;51.398;7.088;2023-04-01T00:16:12;2.63;;;1.53;;
11735;SDS011;5924;51.398;7.088;2023-04-01T00:18:39;3.93;;;1.20;;
11735;SDS011;5924;51.398;7.088;2023-04-01T00:21:05;3.03;;;0.93;;
11735;SDS011;5924;51.398;7.088;2023-04-01T00:23:31;3.83;;;1.53;;
11735;SDS011;5924;51.398;7.088;2023-04-01T00:25:59;3.27;;;1.30;;
11735;SDS011;5924;51.398;7.088;2023-04-01T00:28:26;1.60;;;1.47;;
11735;SDS011;5924;51.398;7.088;2023-04-01T00:30:52;2.83;;;1.60;;
11735;SDS011;5924;51.398;7.088;2023-04-01T00:33:17;1.57;;;1.20;;
11735;SDS011;5924;51.398;7.088;2023-04-01T00:35:43;3.87;;;1.57;;
11735;SDS011;5924;51.398;7.088;2023-04-01T00:38:09;7.73;;;1.60;;
11735;SDS011;5924;51.398;7.088;2023-04-01T00:40:45;3.67;;;1.80;;
11735;SDS011;5924;51.398;7.088;2023-04-01T00:43:12;2.03;;;1.93;;
11735;SDS011;5924;51.398;7.088;2023-04-01T00:45:41;2.33;;;2.23;;
11735;SDS011;5924;51.398;7.088;2023-04-01T00:48:13;2.60;;;1.80;;
11735;SDS011;5924;51.398;7.088;2023-04-01T00:50:48;2.20;;;1.40;;
11735;SDS011;5924;51.398;7.088;2023-04-01T00:53:17;3.90;;;1.93;;
11735;SDS011;5924;51.398;7.088;2023-04-01T00:55:46;2.53;;;1.70;;
11735;SDS011;5924;51.398;7.088;2023-04-01T00:58:21;1.63;;;1.53;;
11735;SDS011;5924;51.398;7.088;2023-04-01T01:00:49;1.20;;;1.20;;
11735;SDS011;5924;51.398;7.088;2023-04-01T01:03:16;5.30;;;1.50;;
11735;SDS011;5924;51.398;7.088;2023-04-01T01:12:16;3.23;;;1.47;;
11735;SDS011;5924;51.398;7.088;2023-04-01T01:17:57;2.30;;;1.80;;
11735;SDS011;5924;51.398;7.088;2023-04-01T01:28:51;1.53;;;1.43;;
11735;SDS011;5924;51.398;7.088;2023-04-01T01:31:23;2.30;;;2.00;;
11735;SDS011;5924;51.398;7.088;2023-04-01T01:34:06;1.97;;;1.30;;
11735;SDS011;5924;51.398;7.088;2023-04-01T01:36:55;1.37;;;1.37;;
11735;SDS011;5924;51.398;7.088;2023-04-01T01:39:26;2.07;;;1.97;;
11735;SDS011;5924;51.398;7.088;2023-04-01T01:41:56;2.40;;;1.20;;
11735;SDS011;5924;51.398;7.088;2023-04-01T01:44:25;1.40;;;1.33;;
11735;SDS011;5924;51.398;7.088;2023-04-01T01:46:53;2.20;;;0.97;;
11735;SDS011;5924;51.398;7.088;2023-04-01T01:49:20;4.03;;;1.07;;
11735;SDS011;5924;51.398;7.088;2023-04-01T01:51:47;2.93;;;1.40;;
11735;SDS011;5924;51.398;7.088;2023-04-01T01:54:14;1.50;;;1.50;;
11735;SDS011;5924;51.398;7.088;2023-04-01T01:56:44;1.20;;;1.20;;
11735;SDS011;5924;51.398;7.088;2023-04-01T01:59:14;2.20;;;1.60;;
11735;SDS011;5924;51.398;7.088;2023-04-01T02:01:44;2.70;;;1.83;;
11735;SDS011;5924;51.398;7.088;2023-04-01T02:04:13;3.40;;;1.27;;
11735;SDS011;5924;51.398;7.088;2023-04-01T02:06:43;3.90;;;1.20;;
11735;SDS011;5924;51.398;7.088;2023-04-01T02:09:14;1.10;;;1.00;;
11735;SDS011;5924;51.398;7.088;2023-04-01T02:11:51;3.40;;;0.97;;
11735;SDS011;5924;51.398;7.088;2023-04-01T02:14:25;3.40;;;1.00;;
11735;SDS011;5924;51.398;7.088;2023-04-01T02:17:02;10.07;;;1.30;;
11735;SDS011;5924;51.398;7.088;2023-04-01T02:19:33;1.33;;;1.10;;
11735;SDS011;5924;51.398;7.088;2023-04-01T02:22:05;1.43;;;1.20;;
11735;SDS011;5924;51.398;7.088;2023-04-01T02:24:34;2.10;;;1.33;;
11735;SDS011;5924;51.398;7.088;2023-04-01T02:27:02;1.10;;;1.10;;
11735;SDS011;5924;51.398;7.088;2023-04-01T02:29:29;5.20;;;1.40;;
11735;SDS011;5924;51.398;7.088;2023-04-01T02:31:55;1.13;;;1.13;;
11735;SDS011;5924;51.398;7.088;2023-04-01T02:34:21;1.23;;;1.23;;
11735;SDS011;5924;51.398;7.088;2023-04-01T02:36:49;1.77;;;1.30;;
11735;SDS011;5924;51.398;7.088;2023-04-01T02:39:15;1.63;;;1.13;;
11735;SDS011;5924;51.398;7.088;2023-04-01T02:41:44;1.07;;;1.07;;
11735;SDS011;5924;51.398;7.088;2023-04-01T02:44:12;1.97;;;1.50;;
11735;SDS011;5924;51.398;7.088;2023-04-01T02:46:39;2.60;;;1.40;;
11735;SDS011;5924;51.398;7.088;2023-04-01T02:49:05;2.67;;;1.53;;
11735;SDS011;5924;51.398;7.088;2023-04-01T02:51:31;0.93;;;0.93;;
11735;SDS011;5924;51.398;7.088;2023-04-01T02:53:57;1.00;;;1.00;;
11735;SDS011;5924;51.398;7.088;2023-04-01T02:56:23;1.33;;;1.10;;
11735;SDS011;5924;51.398;7.088;2023-04-01T02:58:49;1.47;;;1.37;;
11735;SDS011;5924;51.398;7.088;2023-04-01T03:01:15;2.23;;;1.00;;
11735;SDS011;5924;51.398;7.088;2023-04-01T03:03:41;1.20;;;1.03;;
11735;SDS011;5924;51.398;7.088;2023-04-01T03:06:11;1.03;;;1.03;;
11735;SDS011;5924;51.398;7.088;2023-04-01T03:08:38;3.23;;;1.23;;
11735;SDS011;5924;51.398;7.088;2023-04-01T03:11:04;2.83;;;1.83;;
11735;SDS011;5924;51.398;7.088;2023-04-01T03:13:30;1.43;;;1.20;;
11735;SDS011;5924;51.398;7.088;2023-04-01T03:15:56;1.70;;;1.00;;
11735;SDS011;5924;51.398;7.088;2023-04-01T03:18:21;1.50;;;1.00;;
11735;SDS011;5924;51.398;7.088;2023-04-01T03:20:47;0.90;;;0.90;;
11735;SDS011;5924;51.398;7.088;2023-04-01T03:23:13;1.33;;;1.23;;
11735;SDS011;5924;51.398;7.088;2023-04-01T03:25:39;1.23;;;1.13;;
11735;SDS011;5924;51.398;7.088;2023-04-01T03:28:05;5.60;;;1.47;;
11735;SDS011;5924;51.398;7.088;2023-04-01T03:30:30;3.03;;;1.20;;
11735;SDS011;5924;51.398;7.088;2023-04-01T03:32:57;1.30;;;1.30;;
11735;SDS011;5924;51.398;7.088;2023-04-01T03:35:24;1.60;;;1.10;;
11735;SDS011;5924;51.398;7.088;2023-04-01T03:37:50;1.20;;;1.20;;
11735;SDS011;5924;51.398;7.088;2023-04-01T03:40:17;1.10;;;1.10;;
11735;SDS011;5924;51.398;7.088;2023-04-01T03:42:42;2.03;;;1.40;;
11735;SDS011;5924;51.398;7.088;2023-04-01T03:45:08;2.30;;;1.50;;
11735;SDS011;5924;51.398;7.088;2023-04-01T03:47:35;3.60;;;1.20;;
11735;SDS011;5924;51.398;7.088;2023-04-01T03:50:00;1.63;;;1.00;;
11735;SDS011;5924;51.398;7.088;2023-04-01T03:52:26;1.30;;;1.30;;
11735;SDS011;5924;51.398;7.088;2023-04-01T03:54:52;1.10;;;1.10;;
11735;SDS011;5924;51.398;7.088;2023-04-01T03:57:17;1.53;;;1.10;;
11735;SDS011;5924;51.398;7.088;2023-04-01T03:59:43;1.80;;;1.00;;
11735;SDS011;5924;51.398;7.088;2023-04-01T04:02:09;4.87;;;1.00;;
11735;SDS011;5924;51.398;7.088;2023-04-01T04:04:35;2.60;;;1.13;;
11735;SDS011;5924;51.398;7.088;2023-04-01T04:07:00;0.97;;;0.97;;
11735;SDS011;5924;51.398;7.088;2023-04-01T04:09:26;1.07;;;0.97;;
11735;SDS011;5924;51.398;7.088;2023-04-01T04:11:52;1.13;;;1.13;;
11735;SDS011;5924;51.398;7.088;2023-04-01T04:14:17;1.73;;;1.30;;
11735;SDS011;5924;51.398;7.088;2023-04-01T04:16:43;1.23;;;1.17;;
11735;SDS011;5924;51.398;7.088;2023-04-01T04:19:09;1.00;;;1.00;;
11735;SDS011;5924;51.398;7.088;2023-04-01T04:21:35;1.63;;;1.47;;
11735;SDS011;5924;51.398;7.088;2023-04-01T04:24:01;4.30;;;1.30;;
11735;SDS011;5924;51.398;7.088;2023-04-01T04:26:27;5.87;;;1.30;;
11735;SDS011;5924;51.398;7.088;2023-04-01T04:28:53;2.20;;;1.00;;
11735;SDS011;5924;51.398;7.088;2023-04-01T04:31:20;1.90;;;1.80;;
11735;SDS011;5924;51.398;7.088;2023-04-01T04:33:47;2.50;;;1.20;;
11735;SDS011;5924;51.398;7.088;2023-04-01T04:36:13;1.70;;;1.63;;
11735;SDS011;5924;51.398;7.088;2023-04-01T04:38:39;1.23;;;0.93;;
11735;SDS011;5924;51.398;7.088;2023-04-01T04:41:14;1.07;;;1.07;;
11735;SDS011;5924;51.398;7.088;2023-04-01T04:43:48;1.90;;;1.30;;
11735;SDS011;5924;51.398;7.088;2023-04-01T04:46:15;1.10;;;1.00;;
11735;SDS011;5924;51.398;7.088;2023-04-01T04:48:40;2.20;;;1.40;;
11735;SDS011;5924;51.398;7.088;2023-04-01T04:51:06;0.83;;;0.83;;
11735;SDS011;5924;51.398;7.088;2023-04-01T04:53:32;1.00;;;0.93;;
11735;SDS011;5924;51.398;7.088;2023-04-01T04:55:58;1.03;;;0.87;;
11735;SDS011;5924;51.398;7.088;2023-04-01T04:58:23;1.33;;;1.23;;
11735;SDS011;5924;51.398;7.088;2023-04-01T05:00:49;1.10;;;1.10;;
11735;SDS011;5924;51.398;7.088;2023-04-01T05:03:15;1.47;;;1.37;;
11735;SDS011;5924;51.398;7.088;2023-04-01T05:05:47;1.30;;;1.30;;
11735;SDS011;5924;51.398;7.088;2023-04-01T05:08:14;1.43;;;1.43;;
11735;SDS011;5924;51.398;7.088;2023-04-01T05:10:39;1.57;;;1.47;;
11735;SDS011;5924;51.398;7.088;2023-04-01T05:13:05;4.30;;;1.60;;
11735;SDS011;5924;51.398;7.088;2023-04-01T05:15:31;2.20;;;1.37;;
11735;SDS011;5924;51.398;7.088;2023-04-01T05:17:57;1.40;;;1.40;;
11735;SDS011;5924;51.398;7.088;2023-04-01T05:20:22;1.67;;;1.67;;
11735;SDS011;5924;51.398;7.088;2023-04-01T05:22:48;1.97;;;1.90;;
11735;SDS011;5924;51.398;7.088;2023-04-01T05:25:14;2.73;;;1.80;;
11735;SDS011;5924;51.398;7.088;2023-04-01T05:27:39;1.80;;;1.70;;
11735;SDS011;5924;51.398;7.088;2023-04-01T05:30:05;1.70;;;1.70;;
11735;SDS011;5924;51.398;7.088;2023-04-01T05:32:31;1.90;;;1.90;;
11735;SDS011;5924;51.398;7.088;2023-04-01T05:34:57;2.53;;;2.00;;
11735;SDS011;5924;51.398;7.088;2023-04-01T05:37:22;1.80;;;1.70;;
11735;SDS011;5924;51.398;7.088;2023-04-01T05:39:48;5.80;;;1.50;;
11735;SDS011;5924;51.398;7.088;2023-04-01T05:42:14;1.80;;;1.70;;
11735;SDS011;5924;51.398;7.088;2023-04-01T05:44:40;2.20;;;1.63;;
11735;SDS011;5924;51.398;7.088;2023-04-01T05:47:06;1.87;;;1.87;;
11735;SDS011;5924;51.398;7.088;2023-04-01T05:49:32;1.60;;;1.60;;
11735;SDS011;5924;51.398;7.088;2023-04-01T05:51:58;1.43;;;1.33;;
11735;SDS011;5924;51.398;7.088;2023-04-01T05:54:24;1.60;;;1.60;;
11735;SDS011;5924;51.398;7.088;2023-04-01T05:56:50;2.33;;;2.07;;
11735;SDS011;5924;51.398;7.088;2023-04-01T05:59:15;1.90;;;1.77;;
11735;SDS011;5924;51.398;7.088;2023-04-01T06:01:41;1.80;;;1.70;;
11735;SDS011;5924;51.398;7.088;2023-04-01T06:04:09;2.10;;;1.80;;
11735;SDS011;5924;51.398;7.088;2023-04-01T06:06:38;2.10;;;2.10;;
11735;SDS011;5924;51.398;7.088;2023-04-01T06:09:27;2.43;;;2.00;;
11735;SDS011;5924;51.398;7.088;2023-04-01T06:26:24;1.80;;;1.80;;
11735;SDS011;5924;51.398;7.088;2023-04-01T06:34:27;2.37;;;2.20;;
11735;SDS011;5924;51.398;7.088;2023-04-01T06:47:18;2.57;;;2.30;;
11735;SDS011;5924;51.398;7.088;2023-04-01T06:58:03;3.40;;;2.93;;
11735;SDS011;5924;51.398;7.088;2023-04-01T07:00:32;3.10;;;2.47;;
11735;SDS011;5924;51.398;7.088;2023-04-01T07:03:16;2.93;;;2.80;;
11735;SDS011;5924;51.398;7.088;2023-04-01T07:05:43;2.43;;;2.43;;
11735;SDS011;5924;51.398;7.088;2023-04-01T07:08:10;2.97;;;2.97;;
11735;SDS011;5924;51.398;7.088;2023-04-01T07:10:45;2.63;;;2.63;;
11735;SDS011;5924;51.398;7.088;2023-04-01T07:13:19;3.07;;;2.87;;
11735;SDS011;5924;51.398;7.088;2023-04-01T07:21:48;2.10;;;2.00;;
11735;SDS011;5924;51.398;7.088;2023-04-01T07:24:25;2.03;;;2.03;;
11735;SDS011;5924;51.398;7.088;2023-04-01T07:26:57;2.63;;;2.63;;
11735;SDS011;5924;51.398;7.088;2023-04-01T07:29:23;2.10;;;1.97;;
11735;SDS011;5924;51.398;7.088;2023-04-01T07:37:17;2.73;;;1.70;;
11735;SDS011;5924;51.398;7.088;2023-04-01T07:42:24;1.80;;;1.80;;
11735;SDS011;5924;51.398;7.088;2023-04-01T07:50:25;2.20;;;2.10;;
11735;SDS011;5924;51.398;7.088;2023-04-01T08:01:03;2.73;;;2.50;;
11735;SDS011;5924;51.398;7.088;2023-04-01T08:06:19;2.20;;;2.10;;
11735;SDS011;5924;51.398;7.088;2023-04-01T08:11:59;2.00;;;2.00;;
11735;SDS011;5924;51.398;7.088;2023-04-01T08:23:16;2.87;;;2.87;;
11735;SDS011;5924;51.398;7.088;2023-04-01T08:31:53;3.53;;;3.30;;
11735;SDS011;5924;51.398;7.088;2023-04-01T08:34:34;3.37;;;3.17;;
11735;SDS011;5924;51.398;7.088;2023-04-01T08:37:04;4.57;;;4.47;;
11735;SDS011;5924;51.398;7.088;2023-04-01T08:39:44;4.00;;;3.90;;
11735;SDS011;5924;51.398;7.088;2023-04-01T08:53:56;3.20;;;3.13;;
11735;SDS011;5924;51.398;7.088;2023-04-01T09:24:42;5.43;;;4.97;;
11735;SDS011;5924;51.398;7.088;2023-04-01T09:30:06;5.80;;;5.40;;
11735;SDS011;5924;51.398;7.088;2023-04-01T09:44:26;7.00;;;6.40;;
11735;SDS011;5924;51.398;7.088;2023-04-01T09:50:13;8.30;;;7.50;;
11735;SDS011;5924;51.398;7.088;2023-04-01T10:20:45;10.10;;;9.03;;
11735;SDS011;5924;51.398;7.088;2023-04-01T10:31:54;9.27;;;7.73;;
11735;SDS011;5924;51.398;7.088;2023-04-01T10:49:41;9.80;;;8.10;;
11735;SDS011;5924;51.398;7.088;2023-04-01T10:52:41;8.60;;;7.80;;
11735;SDS011;5924;51.398;7.088;2023-04-01T10:58:38;9.43;;;8.47;;
11735;SDS011;5924;51.398;7.088;2023-04-01T11:06:48;7.70;;;7.10;;
11735;SDS011;5924;51.398;7.088;2023-04-01T11:23:43;8.23;;;7.50;;
11735;SDS011;5924;51.398;7.088;2023-04-01T11:26:43;10.27;;;8.57;;
11735;SDS011;5924;51.398;7.088;2023-04-01T11:30:16;11.80;;;8.20;;
11735;SDS011;5924;51.398;7.088;2023-04-01T11:32:49;11.10;;;8.70;;
11735;SDS011;5924;51.398;7.088;2023-04-01T11:38:25;8.30;;;7.53;;
11735;SDS011;5924;51.398;7.088;2023-04-01T12:05:11;6.13;;;5.53;;
11735;SDS011;5924;51.398;7.088;2023-04-01T12:15:58;7.63;;;6.93;;
11735;SDS011;5924;51.398;7.088;2023-04-01T12:18:50;7.60;;;6.93;;
11735;SDS011;5924;51.398;7.088;2023-04-01T12:21:38;7.80;;;7.20;;
11735;SDS011;5924;51.398;7.088;2023-04-01T12:32:23;7.27;;;6.67;;
11735;SDS011;5924;51.398;7.088;2023-04-01T12:35:15;6.67;;;6.17;;
11735;SDS011;5924;51.398;7.088;2023-04-01T12:42:58;9.23;;;7.73;;
11735;SDS011;5924;51.398;7.088;2023-04-01T12:45:49;10.53;;;8.07;;
11735;SDS011;5924;51.398;7.088;2023-04-01T12:51:24;9.23;;;8.00;;
11735;SDS011;5924;51.398;7.088;2023-04-01T13:04:30;10.43;;;9.37;;
11735;SDS011;5924;51.398;7.088;2023-04-01T13:10:35;12.77;;;9.70;;
11735;SDS011;5924;51.398;7.088;2023-04-01T13:15:55;12.50;;;9.17;;
11735;SDS011;5924;51.398;7.088;2023-04-01T13:18:45;10.77;;;9.67;;
11735;SDS011;5924;51.398;7.088;2023-04-01T13:24:21;12.57;;;9.40;;
11735;SDS011;5924;51.398;7.088;2023-04-01T13:41:36;9.30;;;8.40;;
11735;SDS011;5924;51.398;7.088;2023-04-01T14:03:44;12.43;;;7.53;;
11735;SDS011;5924;51.398;7.088;2023-04-01T14:20:39;10.40;;;7.93;;
11735;SDS011;5924;51.398;7.088;2023-04-01T14:50:51;8.27;;;6.90;;
11735;SDS011;5924;51.398;7.088;2023-04-01T14:55:50;9.77;;;8.40;;
11735;SDS011;5924;51.398;7.088;2023-04-01T14:58:18;11.73;;;7.90;;
11735;SDS011;5924;51.398;7.088;2023-04-01T15:00:58;10.20;;;8.57;;
11735;SDS011;5924;51.398;7.088;2023-04-01T15:03:36;15.77;;;9.47;;
11735;SDS011;5924;51.398;7.088;2023-04-01T15:11:36;17.40;;;10.43;;
11735;SDS011;5924;51.398;7.088;2023-04-01T15:43:41;13.13;;;11.77;;
11735;SDS011;5924;51.398;7.088;2023-04-01T15:57:27;9.90;;;8.50;;
11735;SDS011;5924;51.398;7.088;2023-04-01T16:00:23;8.40;;;7.53;;
11735;SDS011;5924;51.398;7.088;2023-04-01T16:07:59;6.37;;;6.00;;
11735;SDS011;5924;51.398;7.088;2023-04-01T16:10:31;5.87;;;5.30;;
11735;SDS011;5924;51.398;7.088;2023-04-01T16:16:07;5.63;;;5.23;;
11735;SDS011;5924;51.398;7.088;2023-04-01T16:24:35;9.53;;;7.57;;
11735;SDS011;5924;51.398;7.088;2023-04-01T16:32:57;11.40;;;7.77;;
11735;SDS011;5924;51.398;7.088;2023-04-01T16:35:43;14.53;;;9.00;;
11735;SDS011;5924;51.398;7.088;2023-04-01T16:41:19;11.23;;;7.73;;
11735;SDS011;5924;51.398;7.088;2023-04-01T16:43:51;8.13;;;7.37;;
11735;SDS011;5924;51.398;7.088;2023-04-01T16:54:35;9.43;;;7.70;;
11735;SDS011;5924;51.398;7.088;2023-04-01T16:57:53;8.70;;;7.67;;
11735;SDS011;5924;51.398;7.088;2023-04-01T17:03:10;13.33;;;9.77;;
11735;SDS011;5924;51.398;7.088;2023-04-01T17:05:57;11.87;;;9.53;;
11735;SDS011;5924;51.398;7.088;2023-04-01T17:11:53;13.27;;;9.47;;
11735;SDS011;5924;51.398;7.088;2023-04-01T17:28:10;9.50;;;8.50;;
11735;SDS011;5924;51.398;7.088;2023-04-01T17:30:59;9.60;;;8.03;;
11735;SDS011;5924;51.398;7.088;2023-04-01T17:36:51;19.47;;;8.47;;
11735;SDS011;5924;51.398;7.088;2023-04-01T17:42:21;12.60;;;8.43;;
11735;SDS011;5924;51.398;7.088;2023-04-01T17:45:11;11.83;;;9.13;;
11735;SDS011;5924;51.398;7.088;2023-04-01T17:58:46;13.47;;;10.27;;
11735;SDS011;5924;51.398;7.088;2023-04-01T18:04:26;15.17;;;10.17;;
11735;SDS011;5924;51.398;7.088;2023-04-01T18:15:19;15.50;;;10.90;;
11735;SDS011;5924;51.398;7.088;2023-04-01T18:18:10;15.90;;;11.70;;
11735;SDS011;5924;51.398;7.088;2023-04-01T18:28:54;23.00;;;12.77;;
11735;SDS011;5924;51.398;7.088;2023-04-01T18:31:24;20.77;;;12.60;;
11735;SDS011;5924;51.398;7.088;2023-04-01T18:34:02;19.37;;;12.30;;
11735;SDS011;5924;51.398;7.088;2023-04-01T18:39:32;21.53;;;13.50;;
11735;SDS011;5924;51.398;7.088;2023-04-01T18:42:24;26.93;;;13.90;;
11735;SDS011;5924;51.398;7.088;2023-04-01T18:45:18;23.77;;;13.70;;
11735;SDS011;5924;51.398;7.088;2023-04-01T18:50:47;18.90;;;12.30;;
11735;SDS011;5924;51.398;7.088;2023-04-01T18:53:29;23.30;;;13.07;;
11735;SDS011;5924;51.398;7.088;2023-04-01T18:55:56;18.47;;;12.40;;
11735;SDS011;5924;51.398;7.088;2023-04-01T19:04:12;20.57;;;13.07;;
11735;SDS011;5924;51.398;7.088;2023-04-01T19:06:51;19.50;;;13.00;;
11735;SDS011;5924;51.398;7.088;2023-04-01T19:17:32;25.10;;;14.40;;
11735;SDS011;5924;51.398;7.088;2023-04-01T19:20:32;26.07;;;15.43;;
11735;SDS011;5924;51.398;7.088;2023-04-01T19:25:55;17.40;;;12.80;;
11735;SDS011;5924;51.398;7.088;2023-04-01T19:31:13;15.40;;;11.40;;
11735;SDS011;5924;51.398;7.088;2023-04-01T19:33:50;17.67;;;13.00;;
11735;SDS011;5924;51.398;7.088;2023-04-01T20:00:47;9.30;;;8.50;;
11735;SDS011;5924;51.398;7.088;2023-04-01T20:09:07;10.00;;;9.20;;
11735;SDS011;5924;51.398;7.088;2023-04-01T20:15:00;9.70;;;8.90;;
11735;SDS011;5924;51.398;7.088;2023-04-01T20:17:45;9.70;;;8.90;;
11735;SDS011;5924;51.398;7.088;2023-04-01T20:20:15;9.13;;;8.43;;
11735;SDS011;5924;51.398;7.088;2023-04-01T20:23:03;8.80;;;8.20;;
11735;SDS011;5924;51.398;7.088;2023-04-01T20:25:46;11.80;;;8.53;;
11735;SDS011;5924;51.398;7.088;2023-04-01T20:31:02;11.30;;;8.90;;
11735;SDS011;5924;51.398;7.088;2023-04-01T20:36:43;9.10;;;8.37;;
11735;SDS011;5924;51.398;7.088;2023-04-01T20:47:44;7.87;;;7.40;;
11735;SDS011;5924;51.398;7.088;2023-04-01T20:50:34;7.80;;;7.30;;
11735;SDS011;5924;51.398;7.088;2023-04-01T21:02:00;6.30;;;6.00;;
11735;SDS011;5924;51.398;7.088;2023-04-01T21:16:41;6.50;;;6.10;;
11735;SDS011;5924;51.398;7.088;2023-04-01T21:25:25;7.20;;;6.60;;
11735;SDS011;5924;51.398;7.088;2023-04-01T21:30:44;7.53;;;6.97;;
11735;SDS011;5924;51.398;7.088;2023-04-01T21:39:16;6.20;;;5.80;;
11735;SDS011;5924;51.398;7.088;2023-04-01T21:50:19;8.03;;;7.23;;
11735;SDS011;5924;51.398;7.088;2023-04-01T21:52:58;6.83;;;6.33;;
11735;SDS011;5924;51.398;7.088;2023-04-01T22:01:47;6.73;;;6.23;;
11735;SDS011;5924;51.398;7.088;2023-04-01T22:05:16;6.90;;;6.50;;
11735;SDS011;5924;51.398;7.088;2023-04-01T22:07:43;6.80;;;6.30;;
11735;SDS011;5924;51.398;7.088;2023-04-01T22:12:59;6.27;;;5.97;;
11735;SDS011;5924;51.398;7.088;2023-04-01T22:15:52;5.60;;;5.30;;
11735;SDS011;5924;51.398;7.088;2023-04-01T22:18:32;6.40;;;6.00;;
11735;SDS011;5924;51.398;7.088;2023-04-01T22:21:04;5.77;;;5.47;;
11735;SDS011;5924;51.398;7.088;2023-04-01T22:26:44;7.50;;;6.83;;
11735;SDS011;5924;51.398;7.088;2023-04-01T22:30:08;8.23;;;7.70;;
11735;SDS011;5924;51.398;7.088;2023-04-01T22:32:32;7.70;;;7.10;;
11735;SDS011;5924;51.398;7.088;2023-04-01T22:35:09;8.27;;;7.73;;
11735;SDS011;5924;51.398;7.088;2023-04-01T22:40:27;7.20;;;6.70;;
11735;SDS011;5924;51.398;7.088;2023-04-01T22:43:00;7.03;;;6.53;;
11735;SDS011;5924;51.398;7.088;2023-04-01T22:48:38;6.50;;;6.03;;
11735;SDS011;5924;51.398;7.088;2023-04-01T23:02:28;7.30;;;6.70;;
11735;SDS011;5924;51.398;7.088;2023-04-01T23:04:59;8.97;;;8.20;;
11735;SDS011;5924;51.398;7.088;2023-04-01T23:10:16;10.60;;;8.83;;
11735;SDS011;5924;51.398;7.088;2023-04-01T23:13:01;10.00;;;9.00;;
11735;SDS011;5924;51.398;7.088;2023-04-01T23:15:28;8.50;;;7.90;;
11735;SDS011;5924;51.398;7.088;2023-04-01T23:26:53;9.30;;;8.50;;
11735;SDS011;5924;51.398;7.088;2023-04-01T23:29:25;8.70;;;7.90;;
11735;SDS011;5924;51.398;7.088;2023-04-01T23:32:02;9.93;;;9.03;;
11735;SDS011;5924;51.398;7.088;2023-04-01T23:34:29;8.77;;;7.87;;
11735;SDS011;5924;51.398;7.088;2023-04-01T23:37:01;8.40;;;7.70;;
11735;SDS011;5924;51.398;7.088;2023-04-01T23:39:39;8.83;;;7.70;;
11735;SDS011;5924;51.398;7.088;2023-04-01T23:42:17;9.23;;;8.50;;
11735;SDS011;5924;51.398;7.088;2023-04-01T23:44:45;9.73;;;8.87;;
11735;SDS011;5924;51.398;7.088;2023-04-01T23:47:13;10.43;;;9.23;;
11735;SDS011;5924;51.398;7.088;2023-04-01T23:49:47;8.80;;;8.10;;
11735;SDS011;5924;51.398;7.088;2023-04-01T23:52:21;8.87;;;8.07;;
11735;SDS011;5924;51.398;7.088;2023-04-01T23:54:58;8.33;;;7.63;;
